Time;durP1;ratioP1;P1;durP2;ratioP2;P2;SDS_P1;SDS_P2;PMS_P1;PMS_P2;Temp;Humidity;BMP_temperature;BMP_pressure;BME280_temperature;BME280_humidity;BME280_pressure;Samples;Min_cycle;Max_cycle;Signal;HPM_P1;HPM_P2
2023/01/06 00:01:08;;;;;;;107.63;98.67;;;7.00;96.00;;;;;;4994787;28;20175;-91
2023/01/06 00:03:34;;;;;;;106.00;96.73;;;7.00;96.00;;;;;;4993875;28;20201;-92
2023/01/06 00:06:02;;;;;;;107.73;98.50;;;7.00;96.00;;;;;;4994444;28;20178;-91
2023/01/06 00:08:27;;;;;;;111.33;102.27;;;7.00;96.00;;;;;;4995503;28;20182;-91
2023/01/06 00:10:53;;;;;;;112.70;103.47;;;7.00;96.00;;;;;;4999268;28;20174;-92
2023/01/06 00:13:19;;;;;;;114.07;104.97;;;7.00;96.00;;;;;;5001788;28;20185;-91
2023/01/06 00:15:45;;;;;;;110.83;101.47;;;7.00;96.10;;;;;;5005072;28;20198;-92
2023/01/06 00:18:11;;;;;;;116.47;107.10;;;7.20;96.10;;;;;;5004935;28;20193;-92
2023/01/06 00:20:36;;;;;;;116.30;105.90;;;7.10;96.10;;;;;;4999944;28;20182;-93
2023/01/06 00:23:02;;;;;;;118.17;108.60;;;7.20;96.10;;;;;;4997728;28;20200;-92
2023/01/06 00:25:28;;;;;;;120.63;110.10;;;7.20;96.10;;;;;;4996938;28;20189;-93
2023/01/06 00:27:55;;;;;;;120.80;110.67;;;7.10;96.10;;;;;;4994638;28;20648;-92
2023/01/06 00:30:20;;;;;;;119.93;110.60;;;7.20;96.10;;;;;;4994583;28;20177;-92
2023/01/06 00:32:46;;;;;;;124.57;114.47;;;7.30;96.10;;;;;;4994025;28;20218;-91
2023/01/06 00:35:11;;;;;;;126.07;115.80;;;7.20;96.10;;;;;;4993567;28;20205;-92
2023/01/06 00:37:37;;;;;;;124.53;115.23;;;7.20;96.10;;;;;;4993966;28;20178;-92
2023/01/06 00:40:03;;;;;;;125.40;115.60;;;7.20;96.10;;;;;;4994770;28;20554;-92
2023/01/06 00:42:29;;;;;;;126.33;116.13;;;7.30;96.10;;;;;;4994642;28;20205;-92
2023/01/06 00:44:54;;;;;;;131.07;120.13;;;7.20;96.10;;;;;;4993596;28;20185;-92
2023/01/06 00:47:20;;;;;;;133.40;122.20;;;7.30;96.10;;;;;;4992875;28;20186;-93
2023/01/06 00:49:46;;;;;;;137.47;126.37;;;7.20;96.10;;;;;;4993176;28;20186;-93
2023/01/06 00:52:11;;;;;;;134.27;123.07;;;7.30;96.10;;;;;;4993584;28;20564;-93
2023/01/06 00:54:37;;;;;;;136.37;125.40;;;7.30;96.10;;;;;;4993038;28;20213;-92
2023/01/06 00:57:05;;;;;;;135.37;124.10;;;7.30;96.20;;;;;;4992891;28;20174;-92
2023/01/06 00:59:31;;;;;;;129.23;118.43;;;7.30;96.20;;;;;;4994341;28;20184;-92
2023/01/06 01:01:57;;;;;;;133.23;122.27;;;7.30;96.20;;;;;;4998679;28;20237;-91
2023/01/06 01:04:24;;;;;;;134.93;124.23;;;7.30;96.20;;;;;;4994510;28;20554;-92
2023/01/06 01:06:51;;;;;;;136.20;125.73;;;7.30;96.20;;;;;;4994983;28;20636;-93
2023/01/06 01:09:23;;;;;;;135.20;124.73;;;7.40;96.30;;;;;;4994136;28;20244;-93
2023/01/06 01:14:33;;;;;;;126.60;116.47;;;7.30;96.30;;;;;;4998006;28;20241;-92
2023/01/06 01:16:59;;;;;;;122.87;112.03;;;7.30;96.30;;;;;;4996331;28;20220;-92
2023/01/06 01:19:26;;;;;;;121.97;111.60;;;7.40;96.30;;;;;;4996358;28;20269;-92
2023/01/06 01:21:51;;;;;;;117.83;106.90;;;7.30;96.30;;;;;;4996135;28;20170;-92
2023/01/06 01:24:18;;;;;;;116.60;106.73;;;7.30;96.40;;;;;;4996022;28;20185;-92
2023/01/06 01:27:23;;;;;;;115.87;106.00;;;7.30;96.40;;;;;;4997745;28;20185;-92
2023/01/06 01:29:51;;;;;;;114.37;104.27;;;7.40;96.40;;;;;;4997275;28;20228;-92
2023/01/06 01:35:34;;;;;;;113.90;103.33;;;7.40;96.50;;;;;;4996288;28;20221;-92
2023/01/06 01:38:00;;;;;;;103.53;95.00;;;7.40;96.50;;;;;;4995523;28;20170;-92
2023/01/06 01:40:26;;;;;;;110.63;101.00;;;7.50;96.50;;;;;;4995616;28;20666;-91
2023/01/06 01:42:51;;;;;;;109.57;98.87;;;7.50;96.50;;;;;;4995763;28;20233;-92
2023/01/06 01:45:26;;;;;;;107.63;96.23;;;7.50;96.60;;;;;;4995481;28;20174;-91
2023/01/06 01:48:23;;;;;;;111.83;101.43;;;7.50;96.60;;;;;;4995265;28;20220;-91
2023/01/06 01:50:52;;;;;;;103.20;94.03;;;7.60;96.60;;;;;;4991279;28;20190;-91
2023/01/06 01:53:37;;;;;;;107.63;97.70;;;7.60;96.60;;;;;;4995807;28;20293;-91
2023/01/06 01:56:06;;;;;;;103.70;94.07;;;7.60;96.70;;;;;;4995121;28;20197;-91
2023/01/06 01:58:47;;;;;;;102.87;93.90;;;7.60;96.70;;;;;;4995191;28;20583;-91
2023/01/06 02:01:13;;;;;;;111.30;100.67;;;7.70;96.70;;;;;;4996859;28;20154;-89
2023/01/06 02:03:40;;;;;;;109.73;99.77;;;7.70;96.70;;;;;;4994907;28;20193;-90
2023/01/06 02:06:11;;;;;;;103.07;93.67;;;7.70;96.70;;;;;;4994926;28;20213;-91
2023/01/06 02:09:02;;;;;;;107.63;97.70;;;7.70;96.70;;;;;;4996244;28;20162;-91
2023/01/06 02:11:31;;;;;;;103.63;94.20;;;7.80;96.80;;;;;;4995031;28;20174;-91
2023/01/06 02:14:15;;;;;;;113.50;103.13;;;7.80;96.70;;;;;;5002881;28;20289;-92
2023/01/06 02:16:41;;;;;;;104.10;94.93;;;7.70;96.80;;;;;;4994981;28;20700;-91
2023/01/06 02:19:31;;;;;;;104.80;95.57;;;7.80;96.80;;;;;;4995017;28;20217;-91
2023/01/06 02:22:20;;;;;;;91.67;82.37;;;7.80;96.80;;;;;;4994895;28;20170;-91
2023/01/06 02:25:15;;;;;;;99.23;90.10;;;7.80;96.80;;;;;;4986339;28;20657;-91
2023/01/06 02:28:15;;;;;;;96.60;87.17;;;7.80;96.90;;;;;;4995623;28;20174;-92
2023/01/06 02:31:19;;;;;;;97.17;87.17;;;7.90;96.90;;;;;;4995555;28;20178;-92
2023/01/06 02:34:16;;;;;;;99.10;90.17;;;7.90;96.90;;;;;;4995248;28;20279;-92
2023/01/06 02:37:04;;;;;;;101.50;91.70;;;8.00;96.90;;;;;;4995966;28;20240;-93
2023/01/06 02:39:39;;;;;;;106.93;97.30;;;8.00;96.90;;;;;;4996648;28;20167;-92
2023/01/06 02:42:23;;;;;;;107.43;97.73;;;8.00;97.00;;;;;;4996249;28;20300;-92
2023/01/06 02:45:15;;;;;;;102.23;92.20;;;8.00;97.00;;;;;;4996498;28;20248;-92
2023/01/06 02:47:58;;;;;;;105.27;95.30;;;8.00;97.00;;;;;;4995442;28;20166;-93
2023/01/06 02:50:40;;;;;;;104.43;94.43;;;8.10;97.00;;;;;;4996436;28;20173;-93
2023/01/06 02:53:05;;;;;;;109.40;99.10;;;8.10;97.00;;;;;;5000647;28;20206;-94
2023/01/06 02:55:41;;;;;;;112.23;100.90;;;8.10;97.00;;;;;;4998917;28;20202;-93
2023/01/06 02:58:24;;;;;;;110.33;99.70;;;8.10;97.00;;;;;;4997815;28;20181;-93
2023/01/06 03:01:03;;;;;;;109.90;99.20;;;8.10;97.00;;;;;;5003815;28;20170;-93
2023/01/06 03:03:34;;;;;;;109.50;98.60;;;8.20;97.00;;;;;;5006796;28;20265;-93
2023/01/06 03:06:06;;;;;;;113.00;102.10;;;8.20;97.00;;;;;;5005636;28;20174;-93
2023/01/06 03:08:33;;;;;;;113.03;101.50;;;8.10;97.00;;;;;;5002865;28;20171;-93
2023/01/06 03:11:00;;;;;;;108.17;97.27;;;8.20;97.10;;;;;;4999757;28;20189;-92
2023/01/06 03:13:41;;;;;;;103.83;93.17;;;8.30;97.10;;;;;;5000352;28;20292;-93
2023/01/06 03:16:07;;;;;;;110.10;98.30;;;8.30;97.10;;;;;;5000204;28;20289;-93
2023/01/06 03:18:36;;;;;;;114.00;96.13;;;8.30;97.10;;;;;;4999242;28;20220;-93
2023/01/06 03:21:06;;;;;;;96.73;86.00;;;8.30;97.10;;;;;;4996416;28;20166;-92
2023/01/06 03:23:33;;;;;;;76.80;40.70;;;8.40;97.20;;;;;;4996640;28;20198;-93
2023/01/06 03:25:59;;;;;;;80.17;37.80;;;8.40;97.20;;;;;;4997669;28;20249;-92
2023/01/06 03:28:25;;;;;;;91.03;39.77;;;8.40;97.20;;;;;;4999569;28;20217;-93
2023/01/06 03:31:08;;;;;;;91.60;40.73;;;8.50;97.20;;;;;;4997921;28;20182;-92
2023/01/06 03:33:55;;;;;;;66.47;30.30;;;8.50;97.20;;;;;;4995054;28;20718;-92
2023/01/06 03:36:45;;;;;;;82.60;38.47;;;8.60;97.20;;;;;;4993201;28;20329;-92
2023/01/06 03:39:16;;;;;;;84.63;37.60;;;8.60;97.20;;;;;;4994175;28;20170;-92
2023/01/06 03:44:57;;;;;;;79.40;33.33;;;8.70;97.30;;;;;;4995842;28;20245;-92
2023/01/06 03:47:29;;;;;;;92.60;39.83;;;8.70;97.20;;;;;;4994191;28;20257;-92
2023/01/06 03:50:11;;;;;;;88.60;38.33;;;8.70;97.20;;;;;;4994655;28;20791;-92
2023/01/06 03:52:44;;;;;;;87.43;37.33;;;8.70;97.20;;;;;;4994441;28;20194;-92
2023/01/06 03:55:15;;;;;;;85.73;35.27;;;8.70;97.20;;;;;;4994880;28;20198;-93
2023/01/06 03:57:48;;;;;;;95.93;36.50;;;8.80;97.20;;;;;;4994673;28;20166;-92
2023/01/06 04:00:20;;;;;;;91.70;40.20;;;8.80;97.20;;;;;;4994090;28;20233;-92
2023/01/06 04:02:46;;;;;;;95.47;41.73;;;8.80;97.20;;;;;;4994690;28;20202;-92
2023/01/06 04:05:16;;;;;;;94.57;40.37;;;8.80;97.20;;;;;;4994854;28;20188;-92
2023/01/06 04:07:42;;;;;;;84.20;38.33;;;8.80;97.20;;;;;;4995618;28;20189;-92
2023/01/06 04:10:09;;;;;;;88.03;38.20;;;8.80;97.20;;;;;;4994472;28;20644;-92
2023/01/06 04:12:38;;;;;;;77.43;30.47;;;8.80;97.20;;;;;;4994461;28;20213;-92
2023/01/06 04:15:16;;;;;;;97.50;43.60;;;8.80;97.10;;;;;;4994093;28;20205;-92
2023/01/06 04:17:42;;;;;;;97.43;42.47;;;8.80;97.10;;;;;;4995279;28;20177;-92
2023/01/06 04:20:11;;;;;;;96.80;42.60;;;8.80;97.10;;;;;;4996374;28;20269;-92
2023/01/06 04:22:37;;;;;;;93.87;40.07;;;8.90;97.10;;;;;;4996309;28;20224;-92
2023/01/06 04:25:04;;;;;;;102.53;42.77;;;8.90;97.10;;;;;;4996400;28;20273;-92
2023/01/06 04:27:29;;;;;;;95.40;41.63;;;8.90;97.00;;;;;;4996800;28;20713;-92
2023/01/06 04:29:55;;;;;;;101.60;43.67;;;8.90;97.00;;;;;;4996127;28;20250;-92
2023/01/06 04:32:21;;;;;;;90.63;39.33;;;8.90;97.00;;;;;;4996925;28;20293;-92
2023/01/06 04:34:46;;;;;;;92.50;40.37;;;8.90;97.00;;;;;;4994985;28;20220;-92
2023/01/06 04:37:12;;;;;;;84.30;37.77;;;8.90;97.00;;;;;;4995573;28;20174;-91
2023/01/06 04:39:37;;;;;;;89.90;38.40;;;9.00;97.00;;;;;;4995060;28;20666;-92
2023/01/06 04:42:03;;;;;;;99.33;43.83;;;9.00;97.00;;;;;;4995942;28;20174;-92
2023/01/06 04:44:29;;;;;;;93.43;40.03;;;9.00;96.90;;;;;;4995881;28;20254;-92
2023/01/06 04:46:54;;;;;;;86.10;44.00;;;9.00;96.90;;;;;;4996252;28;20173;-92
2023/01/06 04:49:20;;;;;;;102.27;46.43;;;9.00;96.80;;;;;;4998823;28;20651;-92
2023/01/06 04:51:45;;;;;;;88.93;43.93;;;9.00;96.80;;;;;;5001617;28;20177;-91
2023/01/06 04:54:11;;;;;;;102.43;47.17;;;9.10;96.80;;;;;;5001356;28;20190;-93
2023/01/06 04:56:36;;;;;;;88.90;44.53;;;9.10;96.80;;;;;;5001075;28;20576;-92
2023/01/06 04:59:02;;;;;;;90.93;41.90;;;9.10;96.70;;;;;;5000529;28;20174;-92
2023/01/06 05:01:27;;;;;;;90.87;40.77;;;9.10;96.70;;;;;;5000379;28;20186;-92
2023/01/06 05:03:53;;;;;;;93.37;39.03;;;9.10;96.70;;;;;;5001054;28;20237;-92
2023/01/06 05:06:19;;;;;;;67.83;35.50;;;9.20;96.70;;;;;;5002327;28;20178;-92
2023/01/06 05:08:45;;;;;;;86.00;43.93;;;9.20;96.80;;;;;;5000143;28;20366;-92
2023/01/06 05:11:17;;;;;;;69.87;34.40;;;9.10;96.80;;;;;;4983824;28;20237;-92
2023/01/06 05:13:43;;;;;;;82.43;40.10;;;9.10;96.80;;;;;;4999791;28;20201;-92
2023/01/06 05:16:15;;;;;;;85.87;41.27;;;9.10;96.80;;;;;;4998824;28;20208;-92
2023/01/06 05:18:41;;;;;;;80.60;36.93;;;9.20;96.80;;;;;;5002150;28;20628;-91
2023/01/06 05:21:07;;;;;;;74.77;37.07;;;9.10;96.80;;;;;;5000289;28;20178;-93
2023/01/06 05:23:32;;;;;;;71.20;35.90;;;9.20;96.90;;;;;;4999636;28;20664;-92
2023/01/06 05:25:58;;;;;;;77.50;37.60;;;9.20;96.80;;;;;;5012463;28;20190;-92
2023/01/06 05:28:24;;;;;;;73.13;37.30;;;9.10;96.80;;;;;;5014550;28;20188;-92
2023/01/06 05:30:50;;;;;;;77.67;35.93;;;9.20;96.80;;;;;;5003263;28;20265;-92
2023/01/06 05:33:15;;;;;;;79.37;39.20;;;9.20;96.80;;;;;;5008521;28;20625;-92
2023/01/06 05:35:41;;;;;;;74.60;36.20;;;9.20;96.80;;;;;;5007197;28;20213;-93
2023/01/06 05:38:06;;;;;;;61.37;32.03;;;9.20;96.70;;;;;;5008953;28;20174;-92
2023/01/06 05:40:33;;;;;;;68.83;35.07;;;9.20;96.70;;;;;;5009186;28;20174;-93
2023/01/06 05:42:59;;;;;;;55.93;30.97;;;9.20;96.60;;;;;;5009328;28;20198;-93
2023/01/06 05:45:25;;;;;;;61.93;32.80;;;9.20;96.60;;;;;;5009475;28;20540;-93
2023/01/06 05:47:51;;;;;;;62.47;36.00;;;9.20;96.70;;;;;;5009583;28;20315;-93
2023/01/06 05:50:17;;;;;;;75.07;40.27;;;9.20;96.60;;;;;;5010982;28;20181;-93
2023/01/06 05:52:43;;;;;;;63.40;33.63;;;9.20;96.60;;;;;;5008623;28;20201;-93
2023/01/06 05:55:08;;;;;;;69.97;36.40;;;9.20;96.60;;;;;;5009280;28;20261;-93
2023/01/06 05:57:35;;;;;;;75.80;34.73;;;9.20;96.60;;;;;;5007583;28;20182;-93
2023/01/06 06:00:04;;;;;;;67.93;34.90;;;9.20;96.60;;;;;;5006263;28;20177;-92
2023/01/06 06:02:30;;;;;;;58.93;31.67;;;9.20;96.70;;;;;;5008263;28;20205;-93
2023/01/06 06:04:55;;;;;;;57.93;33.63;;;9.20;96.70;;;;;;5003820;28;20545;-93
2023/01/06 06:07:21;;;;;;;78.97;37.73;;;9.20;96.70;;;;;;5000668;28;20175;-93
2023/01/06 06:09:46;;;;;;;65.37;36.57;;;9.20;96.70;;;;;;5002720;28;20671;-93
2023/01/06 06:12:12;;;;;;;49.50;33.33;;;9.20;96.60;;;;;;5002658;28;20208;-92
2023/01/06 06:14:38;;;;;;;49.50;30.30;;;9.20;96.50;;;;;;5000864;28;20178;-92
2023/01/06 06:17:03;;;;;;;50.33;29.67;;;9.20;96.40;;;;;;5001728;28;20209;-92
2023/01/06 06:19:29;;;;;;;48.33;27.47;;;9.20;96.30;;;;;;5004991;28;20197;-92
2023/01/06 06:21:55;;;;;;;47.70;30.90;;;9.20;96.30;;;;;;5003477;28;20204;-92
2023/01/06 06:24:20;;;;;;;55.83;36.20;;;9.20;96.10;;;;;;5007735;28;20189;-93
2023/01/06 06:26:46;;;;;;;39.13;25.37;;;9.20;96.00;;;;;;5006346;28;20196;-92
2023/01/06 06:29:12;;;;;;;46.00;30.90;;;9.30;95.90;;;;;;5012099;28;20178;-93
2023/01/06 06:31:37;;;;;;;51.33;34.13;;;9.20;95.80;;;;;;5003285;28;20186;-91
2023/01/06 06:34:03;;;;;;;39.07;25.03;;;9.30;95.70;;;;;;5002890;28;20757;-92
2023/01/06 06:36:30;;;;;;;41.80;30.23;;;9.30;95.50;;;;;;5000372;28;20233;-92
2023/01/06 06:38:56;;;;;;;42.63;29.97;;;9.30;95.50;;;;;;5003114;28;20182;-91
2023/01/06 06:41:28;;;;;;;39.50;27.20;;;9.30;95.40;;;;;;5003732;28;20252;-93
2023/01/06 06:43:54;;;;;;;37.87;26.10;;;9.30;95.30;;;;;;5012834;28;20217;-93
2023/01/06 06:46:20;;;;;;;42.20;32.70;;;9.30;95.30;;;;;;4998869;28;20551;-92
2023/01/06 06:48:48;;;;;;;39.73;27.43;;;9.30;95.30;;;;;;4998017;28;20206;-93
2023/01/06 06:51:15;;;;;;;37.07;27.43;;;9.30;95.30;;;;;;5000293;28;20177;-92
2023/01/06 06:53:42;;;;;;;40.27;30.27;;;9.30;95.30;;;;;;5003837;28;20205;-93
2023/01/06 06:56:08;;;;;;;34.67;24.93;;;9.30;95.30;;;;;;5004947;28;20210;-93
2023/01/06 06:58:35;;;;;;;27.93;22.10;;;9.30;95.40;;;;;;5000355;28;20178;-91
2023/01/06 07:01:05;;;;;;;35.80;27.03;;;9.20;95.40;;;;;;4997098;28;20179;-92
2023/01/06 07:03:30;;;;;;;26.03;21.67;;;9.30;95.40;;;;;;5009693;28;20202;-93
2023/01/06 07:05:56;;;;;;;32.83;27.17;;;9.30;95.40;;;;;;5017336;28;20266;-93
2023/01/06 07:08:22;;;;;;;36.00;30.53;;;9.30;95.40;;;;;;5018670;28;20170;-93
2023/01/06 07:10:47;;;;;;;46.03;33.93;;;9.30;95.40;;;;;;5016973;28;20186;-92
2023/01/06 07:13:13;;;;;;;41.13;29.50;;;9.30;95.40;;;;;;5015982;28;20189;-93
2023/01/06 07:15:38;;;;;;;41.80;30.80;;;9.30;95.30;;;;;;5019077;28;20260;-91
2023/01/06 07:18:05;;;;;;;37.13;29.87;;;9.30;95.30;;;;;;5016002;28;20177;-92
2023/01/06 07:20:32;;;;;;;27.83;24.70;;;9.30;95.30;;;;;;5013229;28;20213;-92
2023/01/06 07:22:58;;;;;;;36.83;29.60;;;9.30;95.20;;;;;;5011803;28;20673;-93
2023/01/06 07:25:24;;;;;;;36.40;28.73;;;9.30;95.20;;;;;;5012760;28;20304;-93
2023/01/06 07:27:58;;;;;;;29.10;23.30;;;9.30;95.10;;;;;;5015045;28;20162;-93
2023/01/06 07:30:26;;;;;;;33.13;26.33;;;9.30;95.10;;;;;;5015499;28;20182;-93
2023/01/06 07:32:51;;;;;;;34.33;24.07;;;9.30;95.00;;;;;;5012649;28;20676;-92
2023/01/06 07:35:18;;;;;;;31.43;27.83;;;9.30;94.90;;;;;;5017588;28;20274;-93
2023/01/06 07:37:43;;;;;;;33.53;30.43;;;9.30;94.90;;;;;;5018084;28;20202;-92
2023/01/06 07:40:10;;;;;;;36.10;32.53;;;9.30;94.80;;;;;;5018560;28;20189;-92
2023/01/06 07:42:35;;;;;;;27.47;25.03;;;9.30;94.90;;;;;;5018467;28;20241;-93
2023/01/06 07:45:06;;;;;;;34.97;31.53;;;9.40;94.90;;;;;;5013446;28;20629;-92
2023/01/06 07:47:32;;;;;;;36.47;32.87;;;9.40;94.80;;;;;;5015074;28;20178;-93
2023/01/06 07:49:58;;;;;;;32.80;29.67;;;9.30;94.80;;;;;;5011117;28;20277;-92
2023/01/06 07:52:24;;;;;;;36.63;33.30;;;9.40;94.70;;;;;;5013724;28;20749;-93
2023/01/06 07:54:49;;;;;;;37.70;34.10;;;9.40;94.60;;;;;;5014558;28;20177;-92
2023/01/06 07:57:15;;;;;;;32.53;29.60;;;9.40;94.70;;;;;;5014938;28;20229;-92
2023/01/06 07:59:41;;;;;;;34.63;31.77;;;9.40;94.70;;;;;;5004824;28;20549;-92
2023/01/06 08:02:09;;;;;;;39.13;35.17;;;9.30;94.80;;;;;;5009084;28;20245;-92
2023/01/06 08:04:35;;;;;;;30.70;28.07;;;9.40;94.80;;;;;;5016593;28;20162;-93
2023/01/06 08:07:01;;;;;;;33.33;30.43;;;9.30;94.80;;;;;;5016552;28;20622;-93
2023/01/06 08:09:26;;;;;;;33.33;30.30;;;9.40;94.90;;;;;;5013559;28;20174;-94
2023/01/06 08:11:52;;;;;;;39.00;35.57;;;9.30;94.90;;;;;;5012257;28;20189;-92
2023/01/06 08:14:21;;;;;;;32.13;29.37;;;9.30;94.90;;;;;;5012901;28;20185;-93
2023/01/06 08:16:46;;;;;;;34.40;31.53;;;9.40;95.00;;;;;;5010783;28;20198;-93
2023/01/06 08:19:12;;;;;;;35.90;32.80;;;9.30;94.90;;;;;;5007372;28;20738;-92
2023/01/06 08:21:37;;;;;;;32.00;29.00;;;9.40;94.80;;;;;;5007117;28;20237;-92
2023/01/06 08:24:04;;;;;;;34.90;31.90;;;9.40;94.80;;;;;;5006930;28;20197;-93
2023/01/06 08:26:30;;;;;;;35.57;32.63;;;9.30;94.90;;;;;;5006058;28;20225;-94
2023/01/06 08:28:55;;;;;;;29.53;27.07;;;9.40;94.90;;;;;;5007428;28;20178;-92
2023/01/06 08:31:22;;;;;;;36.63;33.20;;;9.40;94.90;;;;;;5005181;28;20216;-93
2023/01/06 08:33:49;;;;;;;36.37;33.17;;;9.30;94.90;;;;;;5004683;28;20224;-93
2023/01/06 08:36:17;;;;;;;34.10;31.43;;;9.30;94.90;;;;;;5003753;28;20208;-93
2023/01/06 08:38:43;;;;;;;35.20;32.33;;;9.30;95.00;;;;;;5003201;28;20170;-93
2023/01/06 08:41:08;;;;;;;32.17;29.67;;;9.30;95.00;;;;;;5003449;28;20208;-93
2023/01/06 08:43:35;;;;;;;31.87;29.47;;;9.40;95.00;;;;;;5004397;28;20205;-93
2023/01/06 08:46:03;;;;;;;35.20;32.10;;;9.40;95.00;;;;;;5003844;28;20184;-93
2023/01/06 08:48:29;;;;;;;34.07;31.17;;;9.40;94.90;;;;;;5006922;28;20181;-92
2023/01/06 08:51:00;;;;;;;34.90;31.30;;;9.40;94.80;;;;;;5009356;28;20186;-93
2023/01/06 08:53:25;;;;;;;33.20;30.57;;;9.40;94.80;;;;;;5008508;28;20200;-93
2023/01/06 08:55:51;;;;;;;33.03;30.37;;;9.40;94.80;;;;;;5013830;28;20277;-94
2023/01/06 08:58:56;;;;;;;32.70;30.23;;;9.40;94.80;;;;;;5009572;28;20209;-93
2023/01/06 09:01:28;;;;;;;31.47;28.87;;;9.40;94.70;;;;;;5010681;28;20507;-93
2023/01/06 09:04:11;;;;;;;30.97;28.77;;;9.50;94.40;;;;;;5012506;28;20214;-93
2023/01/06 09:06:37;;;;;;;32.83;30.40;;;9.50;94.40;;;;;;5009604;28;20171;-91
2023/01/06 09:12:51;;;;;;;31.50;29.40;;;9.40;94.40;;;;;;5003470;28;20212;-93
2023/01/06 09:15:47;;;;;;;46.43;43.53;;;9.50;94.50;;;;;;5008336;28;20214;-92
2023/01/06 09:18:13;;;;;;;51.50;48.20;;;9.50;94.40;;;;;;5004862;28;20179;-91
2023/01/06 09:24:01;;;;;;;55.83;52.37;;;9.50;94.40;;;;;;5013589;28;20225;-93
2023/01/06 09:26:34;;;;;;;56.97;53.30;;;9.40;94.60;;;;;;5006958;28;20154;-92
2023/01/06 09:29:25;;;;;;;56.53;52.77;;;9.50;94.50;;;;;;5007371;28;20185;-93
2023/01/06 09:34:50;;;;;;;54.53;50.87;;;9.60;94.30;;;;;;5095874;22;20236;-94
2023/01/06 09:37:40;;;;;;;53.23;49.93;;;9.60;94.30;;;;;;5018807;28;20190;-93
2023/01/06 10:39:58;;;;;;;85.83;81.03;;;9.50;94.30;;;;;;5014171;28;20216;-93
2023/01/06 10:43:02;;;;;;;80.77;75.63;;;9.30;94.10;;;;;;5016716;28;20198;-93
2023/01/06 10:45:52;;;;;;;74.27;70.00;;;9.30;94.10;;;;;;5014020;28;20157;-93
2023/01/06 10:48:23;;;;;;;61.50;57.60;;;9.30;93.70;;;;;;5014283;28;20166;-93
2023/01/06 10:50:54;;;;;;;58.73;55.17;;;9.40;93.50;;;;;;5018133;28;20178;-92
2023/01/06 10:53:20;;;;;;;57.77;54.00;;;9.30;93.20;;;;;;5013226;28;20218;-92
2023/01/06 10:59:03;;;;;;;40.47;37.97;;;9.20;92.80;;;;;;5102867;22;20229;-94
2023/01/06 11:04:14;;;;;;;36.00;33.60;;;9.20;92.10;;;;;;4988359;28;20237;-92
2023/01/06 11:06:58;;;;;;;34.00;31.67;;;9.10;91.70;;;;;;4993349;28;20171;-93
2023/01/06 11:10:06;;;;;;;31.03;29.20;;;9.30;91.60;;;;;;4997627;28;20162;-93
2023/01/06 11:12:49;;;;;;;23.37;21.93;;;9.30;90.80;;;;;;4998404;28;20266;-93
2023/01/06 11:15:31;;;;;;;19.27;17.90;;;9.40;90.50;;;;;;4995347;28;20175;-93
2023/01/06 11:18:22;;;;;;;19.40;18.10;;;9.50;89.30;;;;;;4996800;28;20186;-93
2023/01/06 11:21:09;;;;;;;17.03;15.70;;;9.60;88.90;;;;;;4992778;28;20159;-93
2023/01/06 11:23:58;;;;;;;15.53;14.43;;;9.60;87.90;;;;;;4992761;28;20230;-92
2023/01/06 11:26:23;;;;;;;15.80;14.80;;;9.60;87.20;;;;;;4993999;28;20179;-93
2023/01/06 11:28:54;;;;;;;15.40;14.30;;;9.60;87.70;;;;;;4986578;28;20194;-92
2023/01/06 11:31:24;;;;;;;15.97;14.60;;;9.60;87.10;;;;;;4980327;28;20184;-92
2023/01/06 11:34:15;;;;;;;14.33;13.03;;;9.70;87.10;;;;;;4994594;28;20183;-92
2023/01/06 12:03:06;;;;;;;17.43;13.23;;;9.90;86.20;;;;;;3281460;22;20287;-92
2023/01/06 12:05:55;;;;;;;17.03;13.70;;;9.70;85.80;;;;;;5017457;28;20150;-92
2023/01/06 12:11:37;;;;;;;19.40;12.63;;;9.50;86.40;;;;;;5146612;23;20237;-92
2023/01/06 13:14:02;;;;;;;16.97;11.23;;;9.10;85.70;;;;;;5035992;22;20245;-92
2023/01/06 14:00:27;;;;;;;15.37;10.47;;;8.70;86.20;;;;;;4992772;28;20274;-90
2023/01/06 14:02:59;;;;;;;17.13;12.40;;;8.70;85.60;;;;;;4982830;28;20198;-92
2023/01/06 14:05:39;;;;;;;15.90;13.80;;;8.70;85.60;;;;;;5000858;28;20173;-91
2023/01/06 14:08:18;;;;;;;15.47;11.33;;;8.70;85.70;;;;;;5003985;28;20161;-92
2023/01/06 14:11:05;;;;;;;;;;;;;;;;;;;;;
2023/01/06 14:13:42;;;;;;;24.53;11.70;;;8.70;85.90;;;;;;5020935;28;20189;-92
2023/01/06 14:16:19;;;;;;;17.90;11.60;;;8.70;85.90;;;;;;5002837;28;20222;-93
2023/01/06 14:19:18;;;;;;;21.07;11.73;;;8.70;85.60;;;;;;5004718;28;20162;-93
2023/01/06 14:22:15;;;;;;;14.23;11.50;;;8.70;85.60;;;;;;4993391;28;20174;-93
2023/01/06 14:24:47;;;;;;;15.30;10.30;;;8.70;85.40;;;;;;4998929;28;20205;-93
2023/01/06 14:27:35;;;;;;;16.77;12.30;;;8.70;85.30;;;;;;5003509;28;20254;-93
2023/01/06 14:30:18;;;;;;;19.00;12.00;;;8.70;85.60;;;;;;5003842;28;20165;-92
2023/01/06 14:32:46;;;;;;;13.23;12.00;;;8.60;86.00;;;;;;5003405;28;20212;-92
2023/01/06 14:35:42;;;;;;;12.87;11.73;;;8.60;85.90;;;;;;5003588;28;20173;-93
2023/01/06 14:38:42;;;;;;;15.47;11.27;;;8.50;85.90;;;;;;4969859;28;20173;-92
2023/01/06 14:41:40;;;;;;;15.93;11.73;;;8.50;85.60;;;;;;5003013;28;20229;-93
2023/01/06 14:44:18;;;;;;;15.73;11.60;;;8.50;85.10;;;;;;5002572;28;20186;-91
2023/01/06 14:47:13;;;;;;;15.73;11.70;;;8.60;85.10;;;;;;5001848;28;20213;-93
2023/01/06 14:50:02;;;;;;;18.90;11.67;;;8.50;85.00;;;;;;4992669;28;20186;-93
2023/01/06 15:00:22;;;;;;;15.90;12.23;;;8.30;85.80;;;;;;4999053;28;20672;-93
2023/01/06 15:03:25;;;;;;;13.40;11.90;;;8.30;85.80;;;;;;5001728;28;20201;-92
2023/01/06 15:06:18;;;;;;;12.30;11.10;;;8.30;86.00;;;;;;4998317;28;20679;-92
2023/01/06 15:08:54;;;;;;;13.30;11.60;;;8.20;86.40;;;;;;5003975;28;20178;-93
2023/01/06 15:11:32;;;;;;;14.67;12.00;;;8.10;86.40;;;;;;5001750;28;20181;-92
2023/01/06 15:14:00;;;;;;;13.73;10.77;;;8.20;86.30;;;;;;5004842;28;20202;-92
2023/01/06 15:16:39;;;;;;;12.03;10.90;;;8.20;86.10;;;;;;4998590;28;20198;-92
2023/01/06 15:19:07;;;;;;;12.60;11.30;;;8.20;85.80;;;;;;5000772;28;20620;-91
2023/01/06 15:21:41;;;;;;;13.90;11.20;;;8.10;86.10;;;;;;5003931;28;20194;-91
2023/01/06 15:24:45;;;;;;;18.93;11.83;;;8.10;86.20;;;;;;5005484;28;20205;-92
2023/01/06 15:27:14;;;;;;;14.60;11.70;;;8.10;86.10;;;;;;4990997;28;20190;-93
2023/01/06 16:03:23;;;;;;;23.23;12.17;;;7.80;86.40;;;;;;5000040;28;20226;-92
2023/01/06 16:05:50;;;;;;;14.57;11.07;;;7.70;86.60;;;;;;4998181;28;20178;-92
2023/01/06 16:08:18;;;;;;;15.53;11.70;;;7.70;86.90;;;;;;4996340;28;20176;-92
2023/01/06 16:10:45;;;;;;;20.17;12.27;;;7.60;87.30;;;;;;4994802;28;20232;-92
2023/01/06 16:13:19;;;;;;;17.57;12.10;;;7.50;87.70;;;;;;4997317;28;20182;-93
2023/01/06 16:15:52;;;;;;;24.63;12.63;;;7.30;88.20;;;;;;4997728;28;20201;-93
2023/01/06 16:18:26;;;;;;;17.23;12.30;;;7.30;88.40;;;;;;4999832;28;20166;-93
2023/01/06 16:20:51;;;;;;;13.73;11.90;;;7.30;88.30;;;;;;5001513;28;20169;-93
2023/01/06 16:23:26;;;;;;;23.23;11.80;;;7.30;88.20;;;;;;4998694;28;20194;-93
2023/01/06 16:26:03;;;;;;;15.10;11.87;;;7.30;88.40;;;;;;5002192;28;20162;-93
2023/01/06 16:28:29;;;;;;;16.03;12.97;;;7.30;88.40;;;;;;5002166;28;20610;-93
2023/01/06 16:31:07;;;;;;;18.47;12.77;;;7.30;88.60;;;;;;5001132;28;20261;-93
2023/01/06 16:33:37;;;;;;;15.27;11.83;;;7.20;88.70;;;;;;4996100;28;20221;-93
2023/01/06 16:36:03;;;;;;;15.97;12.63;;;7.30;88.60;;;;;;4995542;28;20194;-94
2023/01/06 16:38:29;;;;;;;15.07;12.20;;;7.30;88.50;;;;;;4994838;28;20174;-93
2023/01/06 16:40:58;;;;;;;14.07;12.53;;;7.30;88.50;;;;;;4995047;28;20654;-93
2023/01/06 16:43:23;;;;;;;21.50;12.73;;;7.20;88.60;;;;;;4994231;28;20205;-92
2023/01/06 16:46:03;;;;;;;18.37;13.10;;;7.10;88.70;;;;;;4997906;28;20204;-92
2023/01/06 16:48:32;;;;;;;14.60;12.23;;;7.10;88.80;;;;;;5000445;28;20658;-93
2023/01/06 16:50:57;;;;;;;17.53;12.20;;;7.20;88.90;;;;;;5002532;28;20221;-93
2023/01/06 16:53:24;;;;;;;18.67;12.90;;;7.10;88.90;;;;;;5010590;28;20198;-93
2023/01/06 16:55:52;;;;;;;14.10;11.57;;;7.20;88.80;;;;;;5008696;28;20213;-92
2023/01/06 16:58:24;;;;;;;23.47;12.40;;;7.10;89.00;;;;;;4999907;28;20180;-93
2023/01/06 17:00:52;;;;;;;20.33;13.07;;;7.10;89.00;;;;;;4998772;28;20174;-92
2023/01/06 17:03:30;;;;;;;17.93;12.87;;;7.00;88.90;;;;;;4997503;28;20275;-92
2023/01/06 17:05:59;;;;;;;16.27;12.20;;;7.10;89.00;;;;;;4998672;28;20268;-93
2023/01/06 17:08:28;;;;;;;14.60;11.60;;;7.00;89.00;;;;;;4997035;28;20640;-92
2023/01/06 17:10:54;;;;;;;12.33;11.00;;;7.00;88.80;;;;;;5000962;28;20174;-93
2023/01/06 17:13:35;;;;;;;15.40;12.07;;;7.00;88.90;;;;;;4997830;28;20202;-92
2023/01/06 17:16:10;;;;;;;12.97;11.60;;;7.00;88.90;;;;;;4996472;28;20296;-91